logo
Search for airport 
image banner adimage banner adimage banner ad
image banner ad

ED2126 - Nuertingen Medius Klinik

Located in Nuertingen, Germany

ICAO - , IATA -

Data provided by Airmate  

General information

Coordinates: N48°37'44" E9°21'33"
Elevation is 1132 feet MSL.
 
View others Airports in Baden-Württemberg

Operational data

Special qualification required
Current time UTC:
Current local time:
Weather at : EDDS - Stuttgart ( 12 km )
METAR: EDDS 290620Z AUTO VRB02KT CAVOK 13/10 Q1020 NOSIG
TAF: TAF EDDS 290500Z 2906/3006 VRB03KT CAVOK BECMG 2909/2911 21007KT PROB30 TEMPO 2916/2919 28015G25KT 4000 SHRA SCT040CB
View NOTAMs / SUP AIP / TFR affecting this airport [VIEW]
Communications frequencies: [VIEW]

Runways:

Airport contact information

Address: Nuertingen Germany

Other aviation service providers

Aviation club (not for profit)

Flugsportverein Nürtingen 1928 E.V.

Flugsportverein Nürtingen 1928 E.V.

Satellite view of ED2126